sensor_id;sensor_type;location;lat;lon;timestamp;pressure;altitude;pressure_sealevel;temperature;humidity
14120;BME280;7138;49.246;9.100;2024-02-04T00:01:40;99959.50;;;7.78;83.45
14120;BME280;7138;49.246;9.100;2024-02-04T00:04:06;99952.94;;;7.73;84.21
14120;BME280;7138;49.246;9.100;2024-02-04T00:06:32;99943.75;;;7.80;83.23
14120;BME280;7138;49.246;9.100;2024-02-04T00:08:59;99951.50;;;7.77;83.37
14120;BME280;7138;49.246;9.100;2024-02-04T00:11:25;99941.25;;;7.79;83.63
14120;BME280;7138;49.246;9.100;2024-02-04T00:13:51;99938.69;;;7.71;83.40
14120;BME280;7138;49.246;9.100;2024-02-04T00:16:17;99947.69;;;7.71;83.93
14120;BME280;7138;49.246;9.100;2024-02-04T00:18:43;99934.28;;;7.70;83.86
14120;BME280;7138;49.246;9.100;2024-02-04T00:21:09;99923.38;;;7.70;83.90
14120;BME280;7138;49.246;9.100;2024-02-04T00:23:35;99929.88;;;7.69;83.39
14120;BME280;7138;49.246;9.100;2024-02-04T00:26:02;99939.94;;;7.75;82.79
14120;BME280;7138;49.246;9.100;2024-02-04T00:28:29;99951.50;;;7.77;82.68
14120;BME280;7138;49.246;9.100;2024-02-04T00:30:55;99958.66;;;7.84;82.53
14120;BME280;7138;49.246;9.100;2024-02-04T00:33:21;99951.53;;;7.83;82.19
14120;BME280;7138;49.246;9.100;2024-02-04T00:35:47;99969.56;;;7.84;82.19
14120;BME280;7138;49.246;9.100;2024-02-04T00:38:13;99967.66;;;7.78;82.52
14120;BME280;7138;49.246;9.100;2024-02-04T00:40:39;99967.69;;;7.85;82.08
14120;BME280;7138;49.246;9.100;2024-02-04T00:43:07;99953.63;;;7.81;81.97
14120;BME280;7138;49.246;9.100;2024-02-04T00:45:33;99959.75;;;7.90;81.89
14120;BME280;7138;49.246;9.100;2024-02-04T00:47:59;99949.25;;;7.87;82.02
14120;BME280;7138;49.246;9.100;2024-02-04T00:50:24;99953.69;;;7.95;81.93
14120;BME280;7138;49.246;9.100;2024-02-04T00:52:50;99945.72;;;7.93;81.71
14120;BME280;7138;49.246;9.100;2024-02-04T00:55:21;99949.91;;;7.89;81.80
14120;BME280;7138;49.246;9.100;2024-02-04T00:57:46;99954.88;;;7.86;82.05
14120;BME280;7138;49.246;9.100;2024-02-04T01:00:15;99953.22;;;7.84;81.35
14120;BME280;7138;49.246;9.100;2024-02-04T01:02:41;99953.41;;;7.83;81.84
14120;BME280;7138;49.246;9.100;2024-02-04T01:05:07;99959.50;;;7.85;81.16
14120;BME280;7138;49.246;9.100;2024-02-04T01:07:33;99961.88;;;7.95;81.19
14120;BME280;7138;49.246;9.100;2024-02-04T01:09:59;99957.44;;;7.87;81.30
14120;BME280;7138;49.246;9.100;2024-02-04T01:12:25;99963.91;;;7.79;82.14
14120;BME280;7138;49.246;9.100;2024-02-04T01:14:51;99953.84;;;7.87;81.33
14120;BME280;7138;49.246;9.100;2024-02-04T01:17:18;99951.53;;;7.83;81.79
14120;BME280;7138;49.246;9.100;2024-02-04T01:19:44;99941.63;;;7.76;82.11
14120;BME280;7138;49.246;9.100;2024-02-04T01:22:10;99936.66;;;7.86;81.92
14120;BME280;7138;49.246;9.100;2024-02-04T01:24:36;99945.00;;;7.78;82.05
14120;BME280;7138;49.246;9.100;2024-02-04T01:27:02;99940.59;;;7.77;81.73
14120;BME280;7138;49.246;9.100;2024-02-04T01:29:27;99938.72;;;7.77;82.20
14120;BME280;7138;49.246;9.100;2024-02-04T01:31:53;99943.59;;;7.89;81.65
14120;BME280;7138;49.246;9.100;2024-02-04T01:34:21;99934.94;;;7.78;82.17
14120;BME280;7138;49.246;9.100;2024-02-04T01:36:46;99945.81;;;7.72;82.34
14120;BME280;7138;49.246;9.100;2024-02-04T01:39:12;99921.69;;;7.75;81.70
14120;BME280;7138;49.246;9.100;2024-02-04T01:41:38;99934.28;;;7.70;82.24
14120;BME280;7138;49.246;9.100;2024-02-04T01:44:04;99935.59;;;7.80;81.86
14120;BME280;7138;49.246;9.100;2024-02-04T01:46:30;99936.00;;;7.77;81.73
14120;BME280;7138;49.246;9.100;2024-02-04T01:48:56;99934.13;;;7.78;81.21
14120;BME280;7138;49.246;9.100;2024-02-04T01:51:23;99932.03;;;7.87;81.80
14120;BME280;7138;49.246;9.100;2024-02-04T01:53:50;99918.00;;;7.90;81.35
14120;BME280;7138;49.246;9.100;2024-02-04T01:56:16;99907.91;;;7.83;81.23
14120;BME280;7138;49.246;9.100;2024-02-04T01:58:43;99920.84;;;7.75;81.18
14120;BME280;7138;49.246;9.100;2024-02-04T02:01:13;99919.38;;;7.72;81.71
14120;BME280;7138;49.246;9.100;2024-02-04T02:03:39;99907.69;;;7.85;81.46
14120;BME280;7138;49.246;9.100;2024-02-04T02:06:06;99924.91;;;7.86;81.08
14120;BME280;7138;49.246;9.100;2024-02-04T02:08:33;99933.69;;;7.81;81.56
14120;BME280;7138;49.246;9.100;2024-02-04T02:11:10;99913.97;;;7.79;81.35
14120;BME280;7138;49.246;9.100;2024-02-04T02:13:39;99912.47;;;7.70;82.07
14120;BME280;7138;49.246;9.100;2024-02-04T02:16:11;99913.31;;;7.70;81.64
14120;BME280;7138;49.246;9.100;2024-02-04T02:18:42;99905.75;;;7.72;81.65
14120;BME280;7138;49.246;9.100;2024-02-04T02:21:26;99928.44;;;7.79;81.90
14120;BME280;7138;49.246;9.100;2024-02-04T02:24:10;99918.81;;;7.83;81.87
14120;BME280;7138;49.246;9.100;2024-02-04T02:26:37;99917.72;;;7.71;82.48
14120;BME280;7138;49.246;9.100;2024-02-04T02:29:04;99906.19;;;7.76;81.96
14120;BME280;7138;49.246;9.100;2024-02-04T02:31:31;99909.47;;;7.58;83.04
14120;BME280;7138;49.246;9.100;2024-02-04T02:33:57;99921.06;;;7.67;82.34
14120;BME280;7138;49.246;9.100;2024-02-04T02:36:25;99915.78;;;7.65;82.60
14120;BME280;7138;49.246;9.100;2024-02-04T02:39:04;99912.88;;;7.67;81.93
14120;BME280;7138;49.246;9.100;2024-02-04T02:41:38;99926.25;;;7.62;82.06
14120;BME280;7138;49.246;9.100;2024-02-04T02:44:08;99929.72;;;7.77;81.37
14120;BME280;7138;49.246;9.100;2024-02-04T02:46:36;99927.34;;;7.67;81.96
14120;BME280;7138;49.246;9.100;2024-02-04T02:49:02;99927.78;;;7.71;81.82
14120;BME280;7138;49.246;9.100;2024-02-04T02:51:28;99915.13;;;7.63;81.68
14120;BME280;7138;49.246;9.100;2024-02-04T02:53:54;99905.75;;;7.72;81.62
14120;BME280;7138;49.246;9.100;2024-02-04T02:56:21;99896.09;;;7.70;81.56
14120;BME280;7138;49.246;9.100;2024-02-04T02:58:48;99904.06;;;7.71;81.72
14120;BME280;7138;49.246;9.100;2024-02-04T03:01:14;99897.16;;;7.75;80.93
14120;BME280;7138;49.246;9.100;2024-02-04T03:03:40;99902.41;;;7.70;80.99
14120;BME280;7138;49.246;9.100;2024-02-04T03:06:06;99906.00;;;7.77;80.78
14120;BME280;7138;49.246;9.100;2024-02-04T03:08:32;99900.31;;;7.72;80.96
14120;BME280;7138;49.246;9.100;2024-02-04T03:10:58;99900.13;;;7.80;80.72
14120;BME280;7138;49.246;9.100;2024-02-04T03:13:23;99902.03;;;7.87;80.28
14120;BME280;7138;49.246;9.100;2024-02-04T03:15:50;99902.69;;;7.89;80.00
14120;BME280;7138;49.246;9.100;2024-02-04T03:18:16;99912.78;;;7.95;80.11
14120;BME280;7138;49.246;9.100;2024-02-04T03:20:42;99915.91;;;7.92;79.77
14120;BME280;7138;49.246;9.100;2024-02-04T03:23:08;99907.69;;;7.85;80.05
14120;BME280;7138;49.246;9.100;2024-02-04T03:25:34;99911.25;;;7.86;79.80
14120;BME280;7138;49.246;9.100;2024-02-04T03:28:00;99909.19;;;7.88;79.63
14120;BME280;7138;49.246;9.100;2024-02-04T03:30:26;99909.00;;;7.89;79.78
14120;BME280;7138;49.246;9.100;2024-02-04T03:32:54;99908.53;;;7.79;79.71
14120;BME280;7138;49.246;9.100;2024-02-04T03:35:20;99918.41;;;7.87;79.48
14120;BME280;7138;49.246;9.100;2024-02-04T03:37:45;99917.38;;;7.88;79.61
14120;BME280;7138;49.246;9.100;2024-02-04T03:40:12;99912.72;;;7.81;79.61
14120;BME280;7138;49.246;9.100;2024-02-04T03:42:38;99900.13;;;7.80;79.76
14120;BME280;7138;49.246;9.100;2024-02-04T03:45:05;99910.88;;;7.89;79.41
14120;BME280;7138;49.246;9.100;2024-02-04T03:47:31;99918.66;;;7.92;79.18
14120;BME280;7138;49.246;9.100;2024-02-04T03:49:58;99920.31;;;7.93;78.82
14120;BME280;7138;49.246;9.100;2024-02-04T03:52:24;99929.38;;;8.00;78.80
14120;BME280;7138;49.246;9.100;2024-02-04T03:54:50;99927.28;;;8.02;79.03
14120;BME280;7138;49.246;9.100;2024-02-04T03:57:16;99925.19;;;8.04;78.32
14120;BME280;7138;49.246;9.100;2024-02-04T03:59:44;99928.75;;;7.98;78.44
14120;BME280;7138;49.246;9.100;2024-02-04T04:02:12;99927.03;;;7.97;78.66
14120;BME280;7138;49.246;9.100;2024-02-04T04:04:40;99930.59;;;7.91;78.87
14120;BME280;7138;49.246;9.100;2024-02-04T04:07:08;99926.41;;;7.95;78.51
14120;BME280;7138;49.246;9.100;2024-02-04T04:09:34;99927.09;;;8.03;78.82
14120;BME280;7138;49.246;9.100;2024-02-04T04:12:00;99910.94;;;8.02;78.31
14120;BME280;7138;49.246;9.100;2024-02-04T04:14:25;99917.00;;;8.04;78.50
14120;BME280;7138;49.246;9.100;2024-02-04T04:16:51;99910.47;;;7.92;78.30
14120;BME280;7138;49.246;9.100;2024-02-04T04:19:17;99916.56;;;7.94;78.44
14120;BME280;7138;49.246;9.100;2024-02-04T04:21:43;99906.91;;;7.91;78.48
14120;BME280;7138;49.246;9.100;2024-02-04T04:24:10;99911.09;;;7.87;78.66
14120;BME280;7138;49.246;9.100;2024-02-04T04:26:36;99914.84;;;7.86;78.45
14120;BME280;7138;49.246;9.100;2024-02-04T04:29:02;99917.81;;;7.91;78.55
14120;BME280;7138;49.246;9.100;2024-02-04T04:31:28;99916.53;;;7.87;78.83
14120;BME280;7138;49.246;9.100;2024-02-04T04:33:54;99924.50;;;7.89;78.93
14120;BME280;7138;49.246;9.100;2024-02-04T04:36:20;99922.84;;;7.88;78.86
14120;BME280;7138;49.246;9.100;2024-02-04T04:38:46;99911.69;;;7.82;78.69
14120;BME280;7138;49.246;9.100;2024-02-04T04:41:16;99926.78;;;7.78;79.72
14120;BME280;7138;49.246;9.100;2024-02-04T04:43:42;99930.69;;;7.69;79.56
14120;BME280;7138;49.246;9.100;2024-02-04T04:46:08;99925.94;;;7.78;79.37
14120;BME280;7138;49.246;9.100;2024-02-04T04:48:34;99927.16;;;7.75;79.34
14120;BME280;7138;49.246;9.100;2024-02-04T04:50:59;99916.06;;;7.77;79.27
14120;BME280;7138;49.246;9.100;2024-02-04T04:53:25;99920.47;;;7.78;79.37
14120;BME280;7138;49.246;9.100;2024-02-04T04:55:51;99913.34;;;7.77;79.40
14120;BME280;7138;49.246;9.100;2024-02-04T04:58:18;99904.97;;;7.85;78.98
14120;BME280;7138;49.246;9.100;2024-02-04T05:00:44;99900.31;;;7.72;79.69
14120;BME280;7138;49.246;9.100;2024-02-04T05:03:10;99914.34;;;7.76;79.72
14120;BME280;7138;49.246;9.100;2024-02-04T05:05:35;99919.75;;;7.63;80.96
14120;BME280;7138;49.246;9.100;2024-02-04T05:08:02;99921.63;;;7.56;80.81
14120;BME280;7138;49.246;9.100;2024-02-04T05:10:28;99931.47;;;7.57;81.42
14120;BME280;7138;49.246;9.100;2024-02-04T05:12:53;99915.97;;;7.57;81.16
14120;BME280;7138;49.246;9.100;2024-02-04T05:15:21;99914.22;;;7.49;81.11
14120;BME280;7138;49.246;9.100;2024-02-04T05:17:47;99918.41;;;7.45;81.28
14120;BME280;7138;49.246;9.100;2024-02-04T05:20:13;99913.81;;;7.52;80.79
14120;BME280;7138;49.246;9.100;2024-02-04T05:22:39;99925.06;;;7.43;81.06
14120;BME280;7138;49.246;9.100;2024-02-04T05:25:05;99931.81;;;7.47;80.54
14120;BME280;7138;49.246;9.100;2024-02-04T05:27:32;99929.31;;;7.45;80.92
14120;BME280;7138;49.246;9.100;2024-02-04T05:29:57;99914.63;;;7.46;81.23
14120;BME280;7138;49.246;9.100;2024-02-04T05:32:25;99910.41;;;7.44;80.68
14120;BME280;7138;49.246;9.100;2024-02-04T05:34:51;99904.59;;;7.47;80.93
14120;BME280;7138;49.246;9.100;2024-02-04T05:37:17;99902.50;;;7.49;81.36
14120;BME280;7138;49.246;9.100;2024-02-04T05:39:42;99914.03;;;7.51;81.10
14120;BME280;7138;49.246;9.100;2024-02-04T05:42:08;99916.94;;;7.49;81.52
14120;BME280;7138;49.246;9.100;2024-02-04T05:44:34;99918.59;;;7.44;81.04
14120;BME280;7138;49.246;9.100;2024-02-04T05:47:00;99915.84;;;7.44;80.96
14120;BME280;7138;49.246;9.100;2024-02-04T05:49:27;99918.56;;;7.37;80.61
14120;BME280;7138;49.246;9.100;2024-02-04T05:51:53;99908.72;;;7.43;81.03
14120;BME280;7138;49.246;9.100;2024-02-04T05:54:18;99925.97;;;7.50;80.88
14120;BME280;7138;49.246;9.100;2024-02-04T05:56:44;99921.13;;;7.45;80.71
14120;BME280;7138;49.246;9.100;2024-02-04T05:59:10;99914.00;;;7.44;80.00
14120;BME280;7138;49.246;9.100;2024-02-04T06:01:36;99919.28;;;7.52;79.80
14120;BME280;7138;49.246;9.100;2024-02-04T06:04:02;99915.31;;;7.55;80.01
14120;BME280;7138;49.246;9.100;2024-02-04T06:06:29;99912.13;;;7.51;79.87
14120;BME280;7138;49.246;9.100;2024-02-04T06:08:55;99929.34;;;7.52;79.63
14120;BME280;7138;49.246;9.100;2024-02-04T06:11:21;99918.00;;;7.48;80.40
14120;BME280;7138;49.246;9.100;2024-02-04T06:13:47;99924.34;;;7.56;80.46
14120;BME280;7138;49.246;9.100;2024-02-04T06:16:12;99899.97;;;7.47;79.92
14120;BME280;7138;49.246;9.100;2024-02-04T06:18:38;99915.28;;;7.48;80.39
14120;BME280;7138;49.246;9.100;2024-02-04T06:21:05;99912.13;;;7.51;80.20
14120;BME280;7138;49.246;9.100;2024-02-04T06:23:32;99911.44;;;7.43;79.99
14120;BME280;7138;49.246;9.100;2024-02-04T06:25:59;99926.88;;;7.57;79.58
14120;BME280;7138;49.246;9.100;2024-02-04T06:28:25;99925.56;;;7.53;79.83
14120;BME280;7138;49.246;9.100;2024-02-04T06:30:51;99920.78;;;7.55;78.85
14120;BME280;7138;49.246;9.100;2024-02-04T06:33:17;99913.81;;;7.52;78.91
14120;BME280;7138;49.246;9.100;2024-02-04T06:35:43;99926.25;;;7.62;78.82
14120;BME280;7138;49.246;9.100;2024-02-04T06:38:08;99923.94;;;7.65;78.96
14120;BME280;7138;49.246;9.100;2024-02-04T06:40:36;99925.63;;;7.60;78.74
14120;BME280;7138;49.246;9.100;2024-02-04T06:43:02;99913.88;;;7.59;79.30
14120;BME280;7138;49.246;9.100;2024-02-04T06:45:27;99924.34;;;7.62;79.14
14120;BME280;7138;49.246;9.100;2024-02-04T06:47:54;99915.59;;;7.67;78.64
14120;BME280;7138;49.246;9.100;2024-02-04T06:50:19;99911.16;;;7.59;78.42
14120;BME280;7138;49.246;9.100;2024-02-04T06:52:46;99898.34;;;7.60;78.54
14120;BME280;7138;49.246;9.100;2024-02-04T06:55:12;99913.03;;;7.59;78.56
14120;BME280;7138;49.246;9.100;2024-02-04T06:57:39;99910.16;;;7.67;78.59
14120;BME280;7138;49.246;9.100;2024-02-04T07:00:07;99917.47;;;7.66;78.99
14120;BME280;7138;49.246;9.100;2024-02-04T07:02:35;99914.34;;;7.69;77.96
14120;BME280;7138;49.246;9.100;2024-02-04T07:05:03;99913.91;;;7.66;78.62
14120;BME280;7138;49.246;9.100;2024-02-04T07:07:29;99905.69;;;7.59;79.11
14120;BME280;7138;49.246;9.100;2024-02-04T07:09:57;99904.03;;;7.65;78.67
14120;BME280;7138;49.246;9.100;2024-02-04T07:12:22;99902.59;;;7.69;79.16
14120;BME280;7138;49.246;9.100;2024-02-04T07:14:50;99906.16;;;7.69;78.64
14120;BME280;7138;49.246;9.100;2024-02-04T07:17:15;99893.59;;;7.68;78.97
14120;BME280;7138;49.246;9.100;2024-02-04T07:19:41;99913.53;;;7.75;78.43
14120;BME280;7138;49.246;9.100;2024-02-04T07:22:07;99900.94;;;7.74;78.01
14120;BME280;7138;49.246;9.100;2024-02-04T07:24:33;99909.13;;;7.74;78.31
14120;BME280;7138;49.246;9.100;2024-02-04T07:26:59;99919.59;;;7.71;78.70
14120;BME280;7138;49.246;9.100;2024-02-04T07:29:24;99921.06;;;7.73;78.62
14120;BME280;7138;49.246;9.100;2024-02-04T07:31:52;99912.88;;;7.73;78.90
14120;BME280;7138;49.246;9.100;2024-02-04T07:34:17;99919.91;;;7.89;78.11
14120;BME280;7138;49.246;9.100;2024-02-04T07:36:43;99911.88;;;7.81;77.92
14120;BME280;7138;49.246;9.100;2024-02-04T07:39:11;99907.69;;;7.78;78.50
14120;BME280;7138;49.246;9.100;2024-02-04T07:41:36;99911.47;;;7.84;78.51
14120;BME280;7138;49.246;9.100;2024-02-04T07:44:03;99897.84;;;7.84;78.31
14120;BME280;7138;49.246;9.100;2024-02-04T07:46:30;99896.16;;;7.76;78.70
14120;BME280;7138;49.246;9.100;2024-02-04T07:48:57;99898.66;;;7.78;78.81
14120;BME280;7138;49.246;9.100;2024-02-04T07:51:23;99901.41;;;7.84;78.36
14120;BME280;7138;49.246;9.100;2024-02-04T07:53:49;99899.75;;;7.90;78.81
14120;BME280;7138;49.246;9.100;2024-02-04T07:56:15;99901.88;;;7.95;78.66
14120;BME280;7138;49.246;9.100;2024-02-04T07:58:40;99911.09;;;7.94;78.18
14120;BME280;7138;49.246;9.100;2024-02-04T08:01:07;99910.25;;;7.93;78.29
14120;BME280;7138;49.246;9.100;2024-02-04T08:03:33;99896.84;;;7.92;78.54
14120;BME280;7138;49.246;9.100;2024-02-04T08:06:01;99893.94;;;8.00;78.61
14120;BME280;7138;49.246;9.100;2024-02-04T08:08:27;99901.25;;;7.93;78.73
14120;BME280;7138;49.246;9.100;2024-02-04T08:10:53;99892.44;;;7.91;78.86
14120;BME280;7138;49.246;9.100;2024-02-04T08:13:19;99896.63;;;7.93;78.73
14120;BME280;7138;49.246;9.100;2024-02-04T08:15:45;99895.78;;;7.93;78.82
14120;BME280;7138;49.246;9.100;2024-02-04T08:18:11;99890.38;;;7.99;79.11
14120;BME280;7138;49.246;9.100;2024-02-04T08:20:37;99894.97;;;7.99;78.77
14120;BME280;7138;49.246;9.100;2024-02-04T08:23:04;99892.06;;;8.07;78.54
14120;BME280;7138;49.246;9.100;2024-02-04T08:25:29;99896.50;;;8.15;78.53
14120;BME280;7138;49.246;9.100;2024-02-04T08:27:55;99896.91;;;8.11;78.24
14120;BME280;7138;49.246;9.100;2024-02-04T08:30:21;99884.72;;;8.07;78.12
14120;BME280;7138;49.246;9.100;2024-02-04T08:32:47;99895.03;;;8.12;78.38
14120;BME280;7138;49.246;9.100;2024-02-04T08:35:13;99904.00;;;8.06;78.35
14120;BME280;7138;49.246;9.100;2024-02-04T08:37:39;99906.09;;;8.04;78.75
14120;BME280;7138;49.246;9.100;2024-02-04T08:40:09;99918.09;;;8.09;78.04
14120;BME280;7138;49.246;9.100;2024-02-04T08:42:36;99914.75;;;8.14;78.14
14120;BME280;7138;49.246;9.100;2024-02-04T08:45:03;99906.94;;;8.04;77.82
14120;BME280;7138;49.246;9.100;2024-02-04T08:47:28;99914.28;;;8.04;78.06
14120;BME280;7138;49.246;9.100;2024-02-04T08:49:54;99912.66;;;8.16;78.02
14120;BME280;7138;49.246;9.100;2024-02-04T08:52:20;99909.50;;;8.12;77.82
14120;BME280;7138;49.246;9.100;2024-02-04T08:54:46;99910.56;;;8.18;78.00
14120;BME280;7138;49.246;9.100;2024-02-04T08:57:13;99908.66;;;8.19;77.70
14120;BME280;7138;49.246;9.100;2024-02-04T08:59:40;99910.31;;;8.06;77.49
14120;BME280;7138;49.246;9.100;2024-02-04T09:02:05;99917.28;;;8.16;77.42
14120;BME280;7138;49.246;9.100;2024-02-04T09:04:31;99910.16;;;8.21;77.61
14120;BME280;7138;49.246;9.100;2024-02-04T09:06:57;99911.22;;;8.27;77.16
14120;BME280;7138;49.246;9.100;2024-02-04T09:09:23;99925.44;;;8.16;77.38
14120;BME280;7138;49.246;9.100;2024-02-04T09:11:49;99911.66;;;8.30;76.92
14120;BME280;7138;49.246;9.100;2024-02-04T09:14:16;99923.88;;;8.34;77.33
14120;BME280;7138;49.246;9.100;2024-02-04T09:16:42;99920.13;;;8.42;76.90
14120;BME280;7138;49.246;9.100;2024-02-04T09:19:08;99908.38;;;8.48;76.49
14120;BME280;7138;49.246;9.100;2024-02-04T09:21:34;99910.25;;;8.48;76.03
14120;BME280;7138;49.246;9.100;2024-02-04T09:23:59;99906.69;;;8.40;76.53
14120;BME280;7138;49.246;9.100;2024-02-04T09:26:25;99910.84;;;8.36;76.23
14120;BME280;7138;49.246;9.100;2024-02-04T09:28:51;99920.53;;;8.46;76.28
14120;BME280;7138;49.246;9.100;2024-02-04T09:31:18;99918.88;;;8.51;75.77
14120;BME280;7138;49.246;9.100;2024-02-04T09:33:44;99906.09;;;8.52;74.93
14120;BME280;7138;49.246;9.100;2024-02-04T09:36:10;99920.56;;;8.52;75.91
14120;BME280;7138;49.246;9.100;2024-02-04T09:38:36;99918.88;;;8.51;75.39
14120;BME280;7138;49.246;9.100;2024-02-04T09:41:02;99910.03;;;8.49;75.94
14120;BME280;7138;49.246;9.100;2024-02-04T09:43:32;99905.25;;;8.51;75.60
14120;BME280;7138;49.246;9.100;2024-02-04T09:45:59;99896.00;;;8.59;75.28
14120;BME280;7138;49.246;9.100;2024-02-04T09:48:30;99907.53;;;8.61;75.23
14120;BME280;7138;49.246;9.100;2024-02-04T09:50:57;99907.31;;;8.43;75.37
14120;BME280;7138;49.246;9.100;2024-02-04T09:53:32;99914.88;;;8.40;76.35
14120;BME280;7138;49.246;9.100;2024-02-04T09:56:02;99907.31;;;8.43;75.31
14120;BME280;7138;49.246;9.100;2024-02-04T09:58:28;99915.72;;;8.48;76.05
14120;BME280;7138;49.246;9.100;2024-02-04T10:00:54;99896.59;;;8.48;75.10
14120;BME280;7138;49.246;9.100;2024-02-04T10:03:20;99912.78;;;8.56;75.35
14120;BME280;7138;49.246;9.100;2024-02-04T10:05:48;99914.44;;;8.50;75.55
14120;BME280;7138;49.246;9.100;2024-02-04T10:08:14;99903.53;;;8.50;75.44
14120;BME280;7138;49.246;9.100;2024-02-04T10:10:40;99908.78;;;8.45;75.33
14120;BME280;7138;49.246;9.100;2024-02-04T10:13:09;99901.00;;;8.49;76.05
14120;BME280;7138;49.246;9.100;2024-02-04T10:15:35;99910.47;;;8.46;75.74
14120;BME280;7138;49.246;9.100;2024-02-04T10:18:03;99910.47;;;8.46;75.97
14120;BME280;7138;49.246;9.100;2024-02-04T10:20:30;99901.00;;;8.49;76.12
14120;BME280;7138;49.246;9.100;2024-02-04T10:22:57;99886.97;;;8.58;75.53
14120;BME280;7138;49.246;9.100;2024-02-04T10:25:24;99888.84;;;8.58;75.50
14120;BME280;7138;49.246;9.100;2024-02-04T10:27:50;99893.25;;;8.59;75.62
14120;BME280;7138;49.246;9.100;2024-02-04T10:30:18;99912.19;;;8.67;75.55
14120;BME280;7138;49.246;9.100;2024-02-04T10:32:45;99902.53;;;8.78;75.64
14120;BME280;7138;49.246;9.100;2024-02-04T10:35:11;99888.25;;;8.76;75.58
14120;BME280;7138;49.246;9.100;2024-02-04T10:37:37;99891.41;;;8.86;75.06
14120;BME280;7138;49.246;9.100;2024-02-04T10:40:07;99879.03;;;8.83;74.66
14120;BME280;7138;49.246;9.100;2024-02-04T10:42:34;99877.97;;;8.78;75.21
14120;BME280;7138;49.246;9.100;2024-02-04T10:45:05;99877.13;;;8.77;75.02
14120;BME280;7138;49.246;9.100;2024-02-04T10:47:37;99886.38;;;8.83;75.44
14120;BME280;7138;49.246;9.100;2024-02-04T10:50:03;99884.06;;;8.86;75.50
14120;BME280;7138;49.246;9.100;2024-02-04T10:52:35;99887.81;;;8.92;74.90
14120;BME280;7138;49.246;9.100;2024-02-04T10:55:07;99894.56;;;8.96;75.06
14120;BME280;7138;49.246;9.100;2024-02-04T10:57:33;99889.72;;;8.85;75.39
14120;BME280;7138;49.246;9.100;2024-02-04T11:00:01;99895.81;;;8.87;74.75
14120;BME280;7138;49.246;9.100;2024-02-04T11:02:32;99903.81;;;8.95;75.13
14120;BME280;7138;49.246;9.100;2024-02-04T11:05:00;99895.81;;;9.00;74.18
14120;BME280;7138;49.246;9.100;2024-02-04T11:07:31;99894.56;;;8.96;73.94
14120;BME280;7138;49.246;9.100;2024-02-04T11:09:58;99887.84;;;8.85;74.81
14120;BME280;7138;49.246;9.100;2024-02-04T11:12:28;99896.84;;;8.92;75.41
14120;BME280;7138;49.246;9.100;2024-02-04T11:14:58;99889.09;;;8.89;74.78
14120;BME280;7138;49.246;9.100;2024-02-04T11:21:18;99874.78;;;8.67;75.17
14120;BME280;7138;49.246;9.100;2024-02-04T11:24:07;99853.38;;;8.58;75.21
14120;BME280;7138;49.246;9.100;2024-02-04T11:26:37;99850.03;;;8.62;75.33
14120;BME280;7138;49.246;9.100;2024-02-04T11:29:09;99849.38;;;8.67;75.52
14120;BME280;7138;49.246;9.100;2024-02-04T11:31:39;99843.31;;;8.65;75.72
14120;BME280;7138;49.246;9.100;2024-02-04T11:34:08;99822.72;;;8.76;75.74
14120;BME280;7138;49.246;9.100;2024-02-04T11:36:38;99829.63;;;8.78;75.18
14120;BME280;7138;49.246;9.100;2024-02-04T11:39:11;99848.53;;;8.80;75.02
14120;BME280;7138;49.246;9.100;2024-02-04T11:41:45;99831.31;;;8.79;75.48
14120;BME280;7138;49.246;9.100;2024-02-04T11:44:22;99830.06;;;8.82;75.49
14120;BME280;7138;49.246;9.100;2024-02-04T11:46:48;99833.84;;;8.81;75.11
14120;BME280;7138;49.246;9.100;2024-02-04T11:49:17;99814.94;;;8.86;74.77
14120;BME280;7138;49.246;9.100;2024-02-04T11:51:46;99811.78;;;8.76;74.64
14120;BME280;7138;49.246;9.100;2024-02-04T11:54:15;99811.59;;;8.64;75.35
14120;BME280;7138;49.246;9.100;2024-02-04T11:56:42;99815.16;;;8.58;76.02
14120;BME280;7138;49.246;9.100;2024-02-04T11:59:09;99810.94;;;8.49;75.75
14120;BME280;7138;49.246;9.100;2024-02-04T12:01:36;99795.41;;;8.49;76.32
14120;BME280;7138;49.246;9.100;2024-02-04T12:04:10;99785.34;;;8.56;76.31
14120;BME280;7138;49.246;9.100;2024-02-04T12:06:37;99794.59;;;8.62;75.95
14120;BME280;7138;49.246;9.100;2024-02-04T12:09:03;99802.13;;;8.66;75.56
14120;BME280;7138;49.246;9.100;2024-02-04T12:11:30;99799.59;;;8.72;75.27
14120;BME280;7138;49.246;9.100;2024-02-04T12:13:56;99814.31;;;8.70;75.49
14120;BME280;7138;49.246;9.100;2024-02-04T12:16:22;99814.53;;;8.62;75.73
14120;BME280;7138;49.246;9.100;2024-02-04T12:18:50;99802.34;;;8.58;75.67
14120;BME280;7138;49.246;9.100;2024-02-04T12:21:16;99799.81;;;8.57;76.29
14120;BME280;7138;49.246;9.100;2024-02-04T12:23:42;99782.59;;;8.56;76.01
14120;BME280;7138;49.246;9.100;2024-02-04T12:26:08;99774.44;;;8.63;76.39
14120;BME280;7138;49.246;9.100;2024-02-04T12:28:34;99776.94;;;8.64;76.28
14120;BME280;7138;49.246;9.100;2024-02-04T12:30:59;99781.13;;;8.67;76.15
14120;BME280;7138;49.246;9.100;2024-02-04T12:33:25;99787.00;;;8.77;75.85
14120;BME280;7138;49.246;9.100;2024-02-04T12:35:52;99784.50;;;8.76;75.95
14120;BME280;7138;49.246;9.100;2024-02-04T12:38:21;99797.06;;;8.90;75.88
14120;BME280;7138;49.246;9.100;2024-02-04T12:40:47;99806.31;;;8.89;75.92
14120;BME280;7138;49.246;9.100;2024-02-04T12:43:13;99795.19;;;8.84;75.68
14120;BME280;7138;49.246;9.100;2024-02-04T12:45:39;99801.06;;;8.94;76.09
14120;BME280;7138;49.246;9.100;2024-02-04T12:48:06;99789.28;;;9.00;75.27
14120;BME280;7138;49.246;9.100;2024-02-04T12:50:32;99788.03;;;8.96;75.80
14120;BME280;7138;49.246;9.100;2024-02-04T12:53:05;99792.22;;;8.98;75.30
14120;BME280;7138;49.246;9.100;2024-02-04T12:55:31;99780.25;;;9.06;75.49
14120;BME280;7138;49.246;9.100;2024-02-04T12:58:05;99760.91;;;9.01;74.99
14120;BME280;7138;49.246;9.100;2024-02-04T13:00:31;99769.53;;;9.05;75.71
14120;BME280;7138;49.246;9.100;2024-02-04T13:02:58;99780.66;;;9.03;75.51
14120;BME280;7138;49.246;9.100;2024-02-04T13:05:24;99777.25;;;9.14;75.43
14120;BME280;7138;49.246;9.100;2024-02-04T13:07:56;99771.59;;;9.16;75.15
14120;BME280;7138;49.246;9.100;2024-02-04T13:10:25;99777.69;;;9.18;75.20
14120;BME280;7138;49.246;9.100;2024-02-04T13:13:01;99766.72;;;9.24;75.35
14120;BME280;7138;49.246;9.100;2024-02-04T13:15:28;99766.53;;;9.19;74.87
14120;BME280;7138;49.246;9.100;2024-02-04T13:17:54;99765.47;;;9.20;74.90
14120;BME280;7138;49.246;9.100;2024-02-04T13:20:21;99751.59;;;9.28;74.75
14120;BME280;7138;49.246;9.100;2024-02-04T13:22:46;99757.50;;;9.25;74.89
14120;BME280;7138;49.246;9.100;2024-02-04T13:25:12;99768.59;;;9.31;74.42